Time;durP1;ratioP1;P1;durP2;ratioP2;P2;SDS_P1;SDS_P2;PMS_P1;PMS_P2;Temp;Humidity;BMP_temperature;BMP_pressure;BME280_temperature;BME280_humidity;BME280_pressure;Samples;Min_cycle;Max_cycle;Signal;HPM_P1;HPM_P2
2021/04/20 00:00:39;;;;;;;10.10;4.90;;;;;;;18.25;60.92;101727.78;5050895;28;20093;-64
2021/04/20 00:03:05;;;;;;;10.80;4.85;;;;;;;18.26;60.91;101729.44;5062621;28;20041;-62
2021/04/20 00:05:30;;;;;;;11.27;5.43;;;;;;;18.26;61.21;101729.44;5048269;28;20116;-62
2021/04/20 00:07:56;;;;;;;10.07;4.78;;;;;;;18.25;60.77;101722.47;5045597;28;20036;-61
2021/04/20 00:10:22;;;;;;;9.05;4.57;;;;;;;18.24;60.98;101724.28;5049493;28;20495;-67
2021/04/20 00:12:48;;;;;;;8.60;4.90;;;;;;;18.24;60.75;101726.13;5049325;28;20476;-61
2021/04/20 00:15:31;;;;;;;9.18;5.10;;;;;;;18.20;60.88;101730.94;5049580;28;20036;-62
2021/04/20 00:17:58;;;;;;;12.93;5.10;;;;;;;18.24;60.81;101723.47;5049550;28;20041;-61
2021/04/20 00:20:24;;;;;;;10.07;4.95;;;;;;;18.23;60.85;101727.94;5050038;28;20115;-61
2021/04/20 00:22:52;;;;;;;9.65;4.80;;;;;;;18.23;60.85;101724.47;5047952;28;20041;-62
2021/04/20 00:25:18;;;;;;;9.93;4.60;;;;;;;18.23;61.14;101725.28;5048910;28;20701;-60
2021/04/20 00:27:43;;;;;;;10.70;5.45;;;;;;;18.24;60.99;101726.13;5049071;28;20042;-69
2021/04/20 00:30:10;;;;;;;11.40;5.03;;;;;;;18.23;60.64;101724.47;5047211;28;20041;-61
2021/04/20 00:32:36;;;;;;;8.18;4.38;;;;;;;18.24;60.75;101726.13;5048630;28;20029;-61
2021/04/20 00:35:04;;;;;;;12.95;5.20;;;;;;;18.23;61.01;101721.81;5045976;28;20064;-63
2021/04/20 00:37:29;;;;;;;9.75;5.05;;;;;;;18.23;61.05;101722.63;5039965;28;20050;-61
2021/04/20 00:39:55;;;;;;;11.15;4.60;;;;;;;18.22;60.74;101714.84;5030339;28;20038;-64
2021/04/20 00:42:20;;;;;;;8.50;4.90;;;;;;;18.23;60.80;101716.50;5044721;28;20558;-62
2021/04/20 00:44:46;;;;;;;9.98;4.38;;;;;;;18.22;60.98;101715.66;5051392;28;20060;-61
2021/04/20 00:47:11;;;;;;;10.55;4.43;;;;;;;18.22;60.89;101713.00;5044726;28;20384;-62
2021/04/20 00:49:37;;;;;;;11.50;4.65;;;;;;;18.22;60.90;101714.84;5032255;28;20029;-61
2021/04/20 00:52:03;;;;;;;8.07;4.38;;;;;;;18.22;60.73;101713.00;5048583;28;20033;-61
2021/04/20 00:54:28;;;;;;;9.13;4.20;;;;;;;18.22;60.77;101713.00;5031170;28;20484;-62
2021/04/20 00:56:54;;;;;;;9.68;4.50;;;;;;;18.21;61.04;101711.34;5037719;28;20039;-61
2021/04/20 00:59:20;;;;;;;9.73;4.57;;;;;;;18.22;60.93;101709.53;5033484;28;20034;-61
2021/04/20 01:01:46;;;;;;;8.57;4.57;;;;;;;18.20;60.66;101707.03;5054517;28;20036;-61
2021/04/20 01:04:13;;;;;;;9.77;4.80;;;;;;;18.21;60.86;101710.53;5049968;28;20029;-64
2021/04/20 01:06:41;;;;;;;9.73;4.40;;;;;;;18.21;60.98;101706.03;5042424;28;20473;-62
2021/04/20 01:09:07;;;;;;;8.38;4.38;;;;;;;18.21;60.69;101705.22;5045962;28;20029;-61
2021/04/20 01:11:35;;;;;;;8.32;4.55;;;;;;;18.20;60.92;101706.22;5047483;28;20029;-61
2021/04/20 01:14:02;;;;;;;8.60;4.30;;;;;;;18.20;60.91;101706.22;5049593;28;20044;-61
2021/04/20 01:16:27;;;;;;;8.13;4.35;;;;;;;18.19;60.81;101705.38;5047225;28;20750;-61
2021/04/20 01:18:53;;;;;;;8.23;4.45;;;;;;;18.19;60.75;101713.34;5048713;28;20124;-62
2021/04/20 01:21:20;;;;;;;8.88;4.63;;;;;;;18.20;60.81;101703.56;5034630;28;20029;-63
2021/04/20 01:23:53;;;;;;;8.50;4.15;;;;;;;18.18;60.82;101698.41;5048817;28;20120;-62
2021/04/20 01:26:22;;;;;;;9.68;4.85;;;;;;;18.19;60.86;101697.41;5045569;28;20086;-61
2021/04/20 01:28:48;;;;;;;7.90;4.00;;;;;;;18.19;60.77;101702.72;5042144;28;20167;-61
2021/04/20 01:31:14;;;;;;;9.82;4.25;;;;;;;18.18;60.57;101695.75;5045089;28;20128;-61
2021/04/20 01:33:42;;;;;;;8.55;4.03;;;;;;;18.18;60.45;101694.94;5048046;28;20434;-61
2021/04/20 01:36:10;;;;;;;7.50;3.90;;;;;;;18.19;60.84;101691.28;5043158;28;20037;-62
2021/04/20 01:38:35;;;;;;;9.32;4.35;;;;;;;18.19;60.84;101692.09;5061256;28;20033;-63
2021/04/20 01:41:01;;;;;;;8.43;4.35;;;;;;;18.18;60.80;101689.63;5037044;28;20072;-63
2021/04/20 01:43:27;;;;;;;7.72;4.13;;;;;;;18.18;60.86;101700.22;5047682;28;20033;-61
2021/04/20 01:45:52;;;;;;;8.07;3.70;;;;;;;18.18;60.74;101697.59;5049503;28;20112;-61
2021/04/20 01:48:18;;;;;;;7.88;3.80;;;;;;;18.17;60.95;101693.28;5037536;28;20037;-65
2021/04/20 01:50:44;;;;;;;7.95;3.67;;;;;;;18.16;60.60;101694.25;5031953;28;20129;-61
2021/04/20 01:53:10;;;;;;;8.70;3.95;;;;;;;18.15;60.83;101692.59;5040142;28;20045;-61
2021/04/20 01:55:38;;;;;;;7.90;3.80;;;;;;;18.15;60.55;101693.44;5039018;28;20044;-68
2021/04/20 01:58:05;;;;;;;6.70;3.80;;;;;;;18.15;60.51;101690.78;5028391;28;20034;-64
2021/04/20 02:00:32;;;;;;;7.63;4.13;;;;;;;18.16;60.91;101691.59;5029640;28;20412;-61
2021/04/20 02:02:59;;;;;;;6.57;3.25;;;;;;;18.15;60.58;101689.94;5049595;28;20051;-66
2021/04/20 02:05:25;;;;;;;7.10;3.75;;;;;;;18.16;60.48;101686.28;5046301;28;20036;-61
2021/04/20 02:07:50;;;;;;;6.93;3.58;;;;;;;18.15;60.35;101690.78;5049619;28;20037;-61
2021/04/20 02:10:16;;;;;;;7.18;3.13;;;;;;;18.15;60.50;101697.91;5048645;28;20442;-63
2021/04/20 02:12:43;;;;;;;7.07;3.30;;;;;;;18.15;60.84;101692.59;5049005;28;20037;-61
2021/04/20 02:15:12;;;;;;;5.88;3.55;;;;;;;18.14;60.58;101690.91;5048036;28;20037;-64
2021/04/20 02:17:40;;;;;;;6.47;3.45;;;;;;;18.15;60.67;101692.59;5047763;28;20055;-63
2021/04/20 02:20:08;;;;;;;6.15;3.33;;;;;;;18.15;60.58;101687.28;5044460;28;20045;-61
2021/04/20 02:22:45;;;;;;;6.53;3.60;;;;;;;18.13;60.44;101686.59;5040403;28;20047;-61
2021/04/20 02:25:14;;;;;;;6.50;3.45;;;;;;;18.15;60.66;101687.28;5048337;28;20079;-61
2021/04/20 02:27:40;;;;;;;6.68;3.38;;;;;;;18.14;60.58;101683.78;5032231;28;20034;-61
2021/04/20 02:30:08;;;;;;;7.53;3.95;;;;;;;18.15;60.38;101684.63;5048224;28;20032;-61
2021/04/20 02:32:38;;;;;;;6.75;3.35;;;;;;;18.13;60.57;101684.78;5028409;28;20040;-61
2021/04/20 02:35:07;;;;;;;6.38;3.20;;;;;;;18.12;60.70;101683.13;5030990;28;21474;-62
2021/04/20 02:37:35;;;;;;;4.93;3.03;;;;;;;18.14;60.41;101680.28;5033781;28;20040;-62
2021/04/20 02:40:03;;;;;;;6.25;3.38;;;;;;;18.13;60.66;101681.28;5048221;28;20477;-61
2021/04/20 02:42:33;;;;;;;7.10;3.42;;;;;;;18.11;60.35;101683.28;5047836;28;20039;-61
2021/04/20 02:45:00;;;;;;;5.00;3.13;;;;;;;18.11;60.44;101681.47;5036423;28;20060;-62
2021/04/20 02:47:28;;;;;;;8.82;3.85;;;;;;;18.12;60.44;101679.63;5047577;28;20075;-61
2021/04/20 02:49:56;;;;;;;7.20;3.28;;;;;;;18.13;60.67;101678.63;5033234;28;20365;-61
2021/04/20 02:52:23;;;;;;;6.20;3.28;;;;;;;18.11;60.77;101678.81;5046083;28;20021;-61
2021/04/20 02:54:49;;;;;;;5.93;3.30;;;;;;;18.13;60.58;101681.28;5046726;28;20128;-66
2021/04/20 02:57:16;;;;;;;7.65;3.80;;;;;;;18.11;60.46;101678.81;5042791;28;20576;-61
2021/04/20 02:59:42;;;;;;;6.32;3.15;;;;;;;18.12;60.44;101674.31;5030615;28;20033;-60
2021/04/20 03:02:10;;;;;;;5.70;3.17;;;;;;;18.14;60.51;101680.28;5049840;28;20090;-65
2021/04/20 03:04:36;;;;;;;8.88;3.85;;;;;;;18.13;60.35;101682.13;5050096;28;20033;-64
2021/04/20 03:07:02;;;;;;;8.38;3.55;;;;;;;18.14;60.74;101680.28;5048962;28;20037;-61
2021/04/20 03:09:29;;;;;;;6.30;3.28;;;;;;;18.13;60.54;101683.94;5050492;28;20399;-61
2021/04/20 03:11:57;;;;;;;4.38;2.65;;;;;;;18.12;60.46;101685.78;5049826;28;20037;-61
2021/04/20 03:14:24;;;;;;;6.18;3.20;;;;;;;18.13;60.25;101681.28;5053706;28;20032;-63
2021/04/20 03:16:50;;;;;;;5.32;2.85;;;;;;;18.12;60.62;101680.47;5045232;28;20030;-61
2021/04/20 03:19:17;;;;;;;6.47;3.28;;;;;;;18.11;60.62;101681.47;5044299;28;20396;-64
2021/04/20 03:21:43;;;;;;;4.75;2.90;;;;;;;18.11;60.44;101675.31;5040550;28;20077;-62
2021/04/20 03:24:28;;;;;;;6.00;3.30;;;;;;;18.08;60.39;101679.16;5042963;28;20150;-61
2021/04/20 03:26:54;;;;;;;6.43;3.03;;;;;;;18.10;60.62;101676.31;5044178;28;20048;-63
2021/04/20 03:29:23;;;;;;;6.38;2.78;;;;;;;18.10;60.57;101673.66;5046221;28;20033;-62
2021/04/20 03:31:49;;;;;;;6.32;2.83;;;;;;;18.10;60.77;101678.97;5043004;28;20033;-63
2021/04/20 03:34:22;;;;;;;5.47;3.13;;;;;;;18.10;60.33;101684.28;5042014;28;20041;-61
2021/04/20 03:37:02;;;;;;;5.60;2.92;;;;;;;18.06;60.66;101681.13;5045079;28;20056;-63
2021/04/20 03:39:31;;;;;;;4.88;3.17;;;;;;;18.09;60.37;101675.50;5052230;28;20120;-62
2021/04/20 03:42:02;;;;;;;5.43;3.00;;;;;;;18.09;60.58;101682.63;5049463;28;20029;-61
2021/04/20 03:44:34;;;;;;;6.63;3.30;;;;;;;18.09;60.37;101679.97;5046670;28;20033;-60
2021/04/20 03:47:03;;;;;;;4.90;2.92;;;;;;;18.09;60.65;101685.28;5047537;28;20032;-62
2021/04/20 03:49:28;;;;;;;6.38;3.13;;;;;;;18.08;60.62;101678.31;5049103;28;20048;-62
2021/04/20 03:51:57;;;;;;;6.15;3.15;;;;;;;18.07;60.66;101682.78;5047198;28;20033;-62
2021/04/20 03:54:25;;;;;;;6.38;3.22;;;;;;;18.07;60.27;101685.44;5042485;28;20021;-62
2021/04/20 03:56:54;;;;;;;6.38;3.30;;;;;;;18.06;60.33;101683.78;5049163;28;20029;-61
2021/04/20 03:59:24;;;;;;;5.47;2.90;;;;;;;18.07;60.52;101684.63;5046346;28;20052;-64
2021/04/20 04:01:51;;;;;;;5.93;2.70;;;;;;;18.07;60.18;101684.63;5046604;28;20199;-63
2021/04/20 04:04:21;;;;;;;6.18;3.38;;;;;;;18.06;60.58;101681.13;5059349;28;20302;-61
2021/04/20 04:06:48;;;;;;;4.38;2.75;;;;;;;18.08;60.41;101688.94;5047660;28;20028;-61
2021/04/20 04:09:18;;;;;;;5.78;3.13;;;;;;;18.05;60.40;101682.13;5053195;28;20116;-62
2021/04/20 04:11:55;;;;;;;4.00;2.40;;;;;;;18.05;60.24;101683.97;5044615;28;20461;-61
2021/04/20 04:14:27;;;;;;;5.05;3.13;;;;;;;18.03;60.18;101678.81;5049085;28;20044;-61
2021/04/20 04:16:59;;;;;;;5.22;2.97;;;;;;;18.04;60.60;101677.81;5046731;28;20750;-61
2021/04/20 04:19:27;;;;;;;4.72;2.67;;;;;;;18.04;60.19;101680.47;5049795;28;20122;-61
2021/04/20 04:21:54;;;;;;;4.45;2.70;;;;;;;18.04;60.42;101683.13;5050946;28;20132;-61
2021/04/20 04:24:20;;;;;;;5.13;2.70;;;;;;;18.05;60.21;101686.63;5050313;28;20040;-61
2021/04/20 04:26:50;;;;;;;5.07;2.90;;;;;;;18.03;60.34;101689.44;5030304;28;20744;-64
2021/04/20 04:29:18;;;;;;;5.70;3.05;;;;;;;18.03;60.50;101678.81;5050243;28;20033;-62
2021/04/20 04:31:47;;;;;;;4.70;2.97;;;;;;;18.02;60.60;101690.44;5042949;28;20037;-63
2021/04/20 04:34:15;;;;;;;4.60;2.83;;;;;;;18.03;60.20;101684.13;5045477;28;20033;-61
2021/04/20 04:36:41;;;;;;;4.93;2.60;;;;;;;18.02;60.50;101685.13;5048569;28;20033;-61
2021/04/20 04:39:14;;;;;;;4.60;2.60;;;;;;;18.01;60.14;101688.78;5049453;28;20033;-61
2021/04/20 04:41:42;;;;;;;5.20;2.75;;;;;;;18.02;60.16;101681.66;5035891;28;20025;-61
2021/04/20 04:44:10;;;;;;;4.93;2.80;;;;;;;18.01;60.42;101682.63;5037386;28;20028;-61
2021/04/20 04:46:36;;;;;;;4.53;2.75;;;;;;;18.01;60.20;101683.47;5043290;28;20113;-61
2021/04/20 04:49:01;;;;;;;4.28;2.47;;;;;;;18.02;60.46;101686.97;5032913;28;20144;-61
2021/04/20 04:51:29;;;;;;;3.95;2.47;;;;;;;18.02;60.39;101686.97;5045356;28;20029;-61
2021/04/20 04:53:56;;;;;;;5.20;2.70;;;;;;;18.02;60.31;101685.13;5041282;28;20049;-62
2021/04/20 04:56:22;;;;;;;5.88;2.97;;;;;;;18.02;60.04;101684.28;5031901;28;20603;-61
2021/04/20 04:58:50;;;;;;;5.60;2.70;;;;;;;18.02;60.21;101684.28;5037117;28;20040;-61
2021/04/20 05:01:16;;;;;;;4.80;2.40;;;;;;;18.02;60.12;101694.91;5035940;28;20048;-64
2021/04/20 05:03:42;;;;;;;4.88;2.60;;;;;;;18.01;60.16;101693.25;5030485;28;20554;-62
2021/04/20 05:06:13;;;;;;;3.92;2.40;;;;;;;17.99;60.39;101697.88;5041421;28;20037;-61
2021/04/20 05:08:39;;;;;;;4.43;2.50;;;;;;;18.01;60.33;101698.56;5031642;28;20033;-62
2021/04/20 05:11:04;;;;;;;3.55;2.50;;;;;;;18.00;60.45;101700.41;5029796;28;20040;-61
2021/04/20 05:13:32;;;;;;;4.38;2.60;;;;;;;18.01;60.38;101693.25;5045941;28;20391;-62
2021/04/20 05:16:19;;;;;;;4.20;2.03;;;;;;;17.96;60.49;101701.69;5051217;28;20086;-61
2021/04/20 05:18:45;;;;;;;3.85;2.25;;;;;;;18.00;60.06;101697.75;5047138;28;20404;-61
2021/04/20 05:21:11;;;;;;;4.22;2.30;;;;;;;18.01;60.12;101699.41;5045844;28;20089;-61
2021/04/20 05:23:36;;;;;;;4.65;2.45;;;;;;;18.01;60.32;101703.88;5046358;28;20042;-64
2021/04/20 05:26:02;;;;;;;3.53;2.10;;;;;;;17.99;60.29;101701.38;5039592;28;20037;-64
2021/04/20 05:28:27;;;;;;;3.67;2.35;;;;;;;18.00;60.32;101704.88;5042837;28;20095;-62
2021/04/20 05:30:53;;;;;;;4.53;2.67;;;;;;;17.99;60.15;101708.50;5047604;28;20037;-62
2021/04/20 05:33:19;;;;;;;4.43;2.50;;;;;;;18.00;60.21;101710.19;5045820;28;20045;-63
2021/04/20 05:35:44;;;;;;;5.00;2.40;;;;;;;18.00;60.02;101710.19;5042258;28;20025;-61
2021/04/20 05:38:10;;;;;;;4.82;2.30;;;;;;;18.01;59.97;101711.84;5048872;28;20468;-61
2021/04/20 05:40:41;;;;;;;4.18;2.60;;;;;;;18.00;60.08;101708.34;5017627;28;20448;-64
2021/04/20 05:43:06;;;;;;;3.17;2.20;;;;;;;18.00;60.28;101715.50;5057799;28;20045;-61
2021/04/20 05:45:33;;;;;;;4.30;2.40;;;;;;;18.00;59.98;101713.66;5038607;28;20450;-63
2021/04/20 05:48:00;;;;;;;3.78;2.28;;;;;;;17.98;59.99;101710.31;5044853;28;21284;-61
2021/04/20 05:50:28;;;;;;;4.22;2.38;;;;;;;17.98;60.24;101714.81;5044308;28;20037;-62
2021/04/20 05:52:55;;;;;;;3.30;2.38;;;;;;;17.99;59.98;101717.31;5042051;28;20494;-63
2021/04/20 05:55:20;;;;;;;5.13;2.65;;;;;;;18.00;60.12;101720.81;5028530;28;20068;-68
2021/04/20 05:57:52;;;;;;;3.35;2.13;;;;;;;17.96;60.25;101715.78;5043434;28;20029;-61
2021/04/20 06:00:20;;;;;;;4.18;2.35;;;;;;;17.99;59.98;101716.47;5028819;28;20096;-63
2021/04/20 06:02:49;;;;;;;3.17;1.92;;;;;;;17.98;60.26;101720.94;5029604;28;20059;-65
2021/04/20 06:05:19;;;;;;;4.55;2.20;;;;;;;17.98;60.01;101723.59;5041650;28;20128;-62
2021/04/20 06:07:52;;;;;;;3.75;2.30;;;;;;;17.96;60.05;101721.09;5029451;28;20033;-61
2021/04/20 06:10:18;;;;;;;4.25;2.42;;;;;;;17.98;60.01;101725.41;5045202;28;20040;-63
2021/04/20 06:12:46;;;;;;;3.85;2.30;;;;;;;17.97;59.93;101729.91;5040857;28;20582;-62
2021/04/20 06:15:14;;;;;;;4.40;2.50;;;;;;;17.98;59.93;101720.09;5062490;28;20454;-62
2021/04/20 06:17:40;;;;;;;3.88;2.28;;;;;;;17.98;60.16;101725.41;5049937;28;20359;-61
2021/04/20 06:20:10;;;;;;;4.07;2.10;;;;;;;17.98;60.02;101728.06;5044382;28;20464;-62
2021/04/20 06:22:37;;;;;;;3.88;2.22;;;;;;;17.97;59.91;101729.91;5047380;28;20040;-63
2021/04/20 06:25:03;;;;;;;5.05;2.63;;;;;;;17.96;60.00;101731.72;5049856;28;20041;-69
2021/04/20 06:27:29;;;;;;;4.60;2.42;;;;;;;17.96;60.18;101734.38;5047274;28;20051;-62
2021/04/20 06:29:56;;;;;;;4.35;2.40;;;;;;;17.96;59.94;101731.72;5048312;28;20025;-62
2021/04/20 06:32:22;;;;;;;3.17;2.05;;;;;;;17.96;59.81;101738.84;5049814;28;20033;-63
2021/04/20 06:34:47;;;;;;;3.13;2.10;;;;;;;17.96;60.13;101736.19;5044087;28;20041;-63
2021/04/20 06:37:14;;;;;;;4.28;2.13;;;;;;;17.95;59.97;101735.38;5032254;28;20044;-64
2021/04/20 06:39:42;;;;;;;3.17;2.10;;;;;;;17.95;59.93;101738.03;5048216;28;20033;-62
2021/04/20 06:42:19;;;;;;;3.50;2.25;;;;;;;17.93;59.86;101742.69;5029322;28;20033;-61
2021/04/20 06:45:04;;;;;;;3.53;2.13;;;;;;;17.92;59.99;101743.66;5043750;28;20068;-64
2021/04/20 06:47:38;;;;;;;3.10;1.75;;;;;;;17.94;60.10;101740.84;5039827;28;20038;-61
2021/04/20 06:50:06;;;;;;;3.63;2.15;;;;;;;17.95;59.87;101742.50;5046571;28;20036;-70
2021/04/20 06:52:57;;;;;;;4.43;2.40;;;;;;;17.90;60.00;101745.66;5041786;28;20175;-61
2021/04/20 06:55:47;;;;;;;3.53;2.17;;;;;;;17.89;60.23;101741.34;5039026;28;20107;-65
2021/04/20 06:58:23;;;;;;;3.00;2.03;;;;;;;17.90;59.92;101740.34;5043090;28;20475;-62
2021/04/20 07:00:55;;;;;;;3.20;2.15;;;;;;;17.92;59.86;101743.66;5052209;28;20396;-64
2021/04/20 07:03:27;;;;;;;4.05;1.80;;;;;;;17.93;60.09;101744.50;5040778;28;20040;-63
2021/04/20 07:06:06;;;;;;;3.97;1.88;;;;;;;17.93;60.03;101742.69;5056166;28;20131;-63
2021/04/20 07:08:43;;;;;;;4.00;2.13;;;;;;;17.94;59.94;101752.31;5046397;28;20024;-61
2021/04/20 07:11:13;;;;;;;3.60;2.13;;;;;;;17.98;60.00;101751.97;5046889;28;20037;-62
2021/04/20 07:13:43;;;;;;;3.92;1.75;;;;;;;17.99;60.14;101750.97;5050729;28;20036;-62
2021/04/20 07:16:17;;;;;;;4.20;1.90;;;;;;;17.99;59.99;101748.31;5048860;28;20037;-62
2021/04/20 07:18:53;;;;;;;3.53;2.03;;;;;;;17.96;60.44;101747.66;5047042;28;20106;-64
2021/04/20 07:21:22;;;;;;;4.85;2.13;;;;;;;17.98;60.23;101750.13;5058989;28;20033;-63
2021/04/20 07:24:06;;;;;;;3.65;2.15;;;;;;;17.95;60.50;101755.78;5046038;28;20048;-62
2021/04/20 07:26:59;;;;;;;6.63;2.53;;;;;;;17.96;60.62;101757.44;5045619;28;20388;-61
2021/04/20 07:29:46;;;;;;;7.00;2.65;;;;;;;17.94;60.33;101754.94;5036050;28;20057;-64
2021/04/20 07:32:18;;;;;;;4.07;2.63;;;;;;;17.95;60.06;101753.97;5045980;28;20142;-62
2021/04/20 07:34:50;;;;;;;10.00;3.17;;;;;;;17.94;60.53;101760.25;5032140;28;20037;-61
2021/04/20 07:37:43;;;;;;;5.40;2.78;;;;;;;17.93;60.22;101768.38;5051091;28;20040;-62
2021/04/20 07:40:24;;;;;;;5.35;2.70;;;;;;;17.93;60.47;101761.25;5035848;28;20048;-61
2021/04/20 07:43:15;;;;;;;4.60;2.70;;;;;;;17.93;60.41;101768.38;5049420;28;20037;-61
2021/04/20 07:45:52;;;;;;;6.07;3.40;;;;;;;17.94;60.47;101768.22;5030953;28;20041;-61
2021/04/20 07:48:33;;;;;;;10.23;2.95;;;;;;;17.95;60.28;101777.03;5049249;28;20028;-62
2021/04/20 07:51:03;;;;;;;13.45;3.08;;;;;;;17.99;60.58;101762.44;5044683;28;20036;-67
2021/04/20 07:53:39;;;;;;;10.30;3.38;;;;;;;18.00;60.73;101765.94;5051161;28;20048;-62
2021/04/20 07:56:15;;;;;;;16.10;3.25;;;;;;;18.00;60.96;101768.59;5049751;28;20037;-65
2021/04/20 07:58:46;;;;;;;14.32;3.53;;;;;;;18.03;60.79;101773.56;5051965;28;20044;-63
2021/04/20 08:01:32;;;;;;;11.75;3.60;;;;;;;17.99;61.17;101775.72;5049745;28;20573;-62
2021/04/20 08:04:14;;;;;;;9.48;2.80;;;;;;;18.01;60.99;101767.59;5044548;28;20045;-62
2021/04/20 08:06:40;;;;;;;7.63;3.55;;;;;;;18.05;61.17;101775.06;5038550;28;20506;-62
2021/04/20 08:09:13;;;;;;;13.23;3.72;;;;;;;18.03;61.34;101782.38;5040789;28;20087;-62
2021/04/20 08:11:50;;;;;;;12.20;3.50;;;;;;;18.01;61.47;101781.69;5054846;28;20044;-62
2021/04/20 08:14:27;;;;;;;13.80;4.10;;;;;;;18.00;61.73;101782.69;5047407;28;20033;-61
2021/04/20 08:16:58;;;;;;;9.70;3.67;;;;;;;18.02;61.96;101782.53;5046619;28;20087;-65
2021/04/20 08:19:33;;;;;;;15.00;3.63;;;;;;;17.99;61.76;101780.19;5044584;28;20045;-62
2021/04/20 08:22:00;;;;;;;11.43;3.40;;;;;;;18.01;61.87;101780.88;5046107;28;20071;-64
2021/04/20 08:24:35;;;;;;;13.90;3.72;;;;;;;17.98;61.26;101775.88;5047794;28;20040;-65
2021/04/20 08:27:16;;;;;;;15.32;4.18;;;;;;;17.95;60.94;101777.84;5060041;28;20064;-63
2021/04/20 08:29:46;;;;;;;9.32;4.22;;;;;;;17.95;60.89;101779.69;5044633;28;20025;-62
2021/04/20 08:32:22;;;;;;;11.00;4.60;;;;;;;17.91;60.79;101779.19;5043816;28;20025;-63
2021/04/20 08:35:29;;;;;;;11.65;3.85;;;;;;;17.90;60.67;101776.69;5041224;28;20071;-64
2021/04/20 08:38:32;;;;;;;8.15;4.28;;;;;;;17.86;60.48;101784.16;5041073;28;20056;-62
2021/04/20 08:41:07;;;;;;;10.18;5.45;;;;;;;17.87;60.19;101785.81;5047289;28;20033;-63
2021/04/20 08:43:54;;;;;;;10.48;4.38;;;;;;;17.83;59.94;101779.16;5040911;28;20093;-63
2021/04/20 08:46:53;;;;;;;9.73;4.68;;;;;;;17.80;59.60;101779.47;5044898;28;20053;-61
2021/04/20 08:49:38;;;;;;;7.97;5.00;;;;;;;17.80;59.33;101779.47;5013902;28;20068;-63
2021/04/20 08:52:17;;;;;;;7.65;4.80;;;;;;;17.80;59.49;101786.59;5038204;28;20373;-68
2021/04/20 08:55:11;;;;;;;8.65;5.07;;;;;;;17.76;59.59;101786.09;5047606;28;20508;-64
2021/04/20 08:58:14;;;;;;;9.73;5.53;;;;;;;17.75;59.10;101787.09;5029070;28;20072;-61
2021/04/20 09:00:45;;;;;;;9.25;4.55;;;;;;;17.77;59.08;101785.09;5030595;28;20103;-63
2021/04/20 09:03:46;;;;;;;8.98;5.15;;;;;;;17.71;58.86;101791.06;5043268;28;20040;-62
2021/04/20 09:06:27;;;;;;;10.73;5.60;;;;;;;17.73;58.46;101791.72;5030192;28;20032;-62
2021/04/20 09:09:00;;;;;;;9.52;5.30;;;;;;;17.73;58.35;101797.03;5030317;28;20167;-62
2021/04/20 09:11:31;;;;;;;10.93;6.28;;;;;;;17.72;58.03;101795.38;5057955;28;20032;-61
2021/04/20 09:14:10;;;;;;;10.13;5.63;;;;;;;17.67;57.68;101798.50;5050461;28;20033;-61
2021/04/20 09:16:55;;;;;;;9.93;5.68;;;;;;;17.65;57.99;101800.44;5059123;28;20040;-62
2021/04/20 09:19:39;;;;;;;8.18;5.38;;;;;;;17.66;57.50;101802.09;5045704;28;20052;-62
2021/04/20 09:22:06;;;;;;;8.23;6.15;;;;;;;17.67;57.71;101805.59;5045715;28;20032;-62
2021/04/20 09:24:57;;;;;;;8.85;5.88;;;;;;;17.64;57.06;101813.88;5045863;28;20041;-61
2021/04/20 09:28:03;;;;;;;8.73;6.03;;;;;;;17.58;56.90;101799.44;5047468;28;20052;-63
2021/04/20 09:30:35;;;;;;;11.13;5.90;;;;;;;17.62;56.94;101799.94;5057769;28;20037;-61
2021/04/20 09:33:07;;;;;;;8.77;6.28;;;;;;;17.58;56.54;101799.44;5051456;28;20041;-61
2021/04/20 09:35:34;;;;;;;9.18;6.05;;;;;;;17.58;56.36;101803.91;5042438;28;20060;-62
2021/04/20 09:38:02;;;;;;;8.80;6.35;;;;;;;17.56;56.26;101811.19;5048922;28;20040;-62
2021/04/20 09:40:30;;;;;;;10.27;6.40;;;;;;;17.56;56.18;101808.56;5053112;28;20029;-61
2021/04/20 09:43:00;;;;;;;9.00;6.07;;;;;;;17.56;56.47;101798.75;5045778;28;20029;-65
2021/04/20 09:45:40;;;;;;;9.40;6.25;;;;;;;17.53;56.08;101801.75;5038903;28;20044;-63
2021/04/20 09:48:20;;;;;;;10.02;6.32;;;;;;;17.52;56.09;101805.38;5044657;28;20449;-62
2021/04/20 09:51:11;;;;;;;9.60;6.18;;;;;;;17.52;55.82;101805.38;5041020;28;20660;-61
2021/04/20 09:53:48;;;;;;;10.05;6.15;;;;;;;17.53;55.97;101803.56;5036504;28;20064;-61
2021/04/20 09:56:19;;;;;;;10.27;6.65;;;;;;;17.53;55.88;101816.81;5046975;28;20052;-61
2021/04/20 09:58:47;;;;;;;9.60;6.70;;;;;;;17.54;55.72;101814.00;5049404;28;20063;-61
2021/04/20 10:01:36;;;;;;;13.45;6.65;;;;;;;17.48;55.11;101808.50;5048968;28;20043;-64
2021/04/20 10:04:13;;;;;;;11.05;7.13;;;;;;;17.50;54.88;101817.13;5052881;28;20037;-61
2021/04/20 10:06:57;;;;;;;9.35;6.18;;;;;;;17.51;54.97;101816.13;5032554;28;20033;-61
2021/04/20 10:09:32;;;;;;;8.23;6.28;;;;;;;17.50;54.96;101814.47;5029140;28;20029;-64
2021/04/20 10:12:19;;;;;;;10.70;6.72;;;;;;;17.46;54.75;101811.31;5042162;28;20060;-61
2021/04/20 10:14:53;;;;;;;9.23;6.68;;;;;;;17.50;54.70;101806.50;5048585;28;20493;-64
2021/04/20 10:17:36;;;;;;;11.23;7.00;;;;;;;17.45;54.73;101814.13;5038754;28;20128;-61
2021/04/20 10:20:34;;;;;;;9.27;6.70;;;;;;;17.43;54.93;101810.81;5042921;28;20033;-64
2021/04/20 10:23:27;;;;;;;9.77;6.57;;;;;;;17.45;54.77;101808.81;5050939;28;20032;-61
2021/04/20 10:26:20;;;;;;;13.10;7.10;;;;;;;17.44;54.53;101817.75;5038647;28;20017;-62
2021/04/20 10:28:56;;;;;;;10.25;6.75;;;;;;;17.45;54.78;101814.13;5048841;28;20392;-62
2021/04/20 10:31:28;;;;;;;10.82;6.72;;;;;;;17.50;54.79;101817.13;5048243;28;20029;-61
2021/04/20 10:33:56;;;;;;;12.55;7.07;;;;;;;17.52;54.69;101820.47;5060755;28;20098;-62
2021/04/20 10:36:24;;;;;;;11.43;7.65;;;;;;;17.51;54.92;101816.13;5050309;28;20041;-62
2021/04/20 10:38:53;;;;;;;11.48;6.60;;;;;;;17.52;54.61;101818.66;5047771;28;20029;-62
2021/04/20 10:41:30;;;;;;;10.77;6.82;;;;;;;17.51;54.53;101822.25;5037696;28;20032;-61
2021/04/20 10:43:57;;;;;;;11.77;7.15;;;;;;;17.54;54.72;101823.78;5047947;28;20029;-62
2021/04/20 10:46:27;;;;;;;10.55;7.18;;;;;;;17.53;54.67;101822.13;5046379;28;20674;-61
2021/04/20 10:48:58;;;;;;;11.27;6.72;;;;;;;17.52;54.38;101812.50;5053524;28;20052;-61
2021/04/20 10:51:34;;;;;;;10.43;6.50;;;;;;;17.51;54.66;101816.97;5046380;28;20033;-62
2021/04/20 10:54:00;;;;;;;10.52;6.80;;;;;;;17.54;54.54;101814.00;5058998;28;20387;-60
2021/04/20 10:56:29;;;;;;;12.77;7.47;;;;;;;17.54;54.20;101818.50;5053149;28;20044;-62
2021/04/20 10:58:58;;;;;;;12.45;7.15;;;;;;;17.54;54.17;101819.31;5047973;28;20039;-64
2021/04/20 11:01:28;;;;;;;11.57;7.50;;;;;;;17.54;54.01;101819.31;5045342;28;20415;-61
2021/04/20 11:03:58;;;;;;;12.85;6.78;;;;;;;17.52;54.43;101818.66;5054384;28;20056;-62
2021/04/20 11:07:01;;;;;;;12.23;6.43;;;;;;;17.49;53.80;101815.47;5044317;28;20600;-62
2021/04/20 11:09:30;;;;;;;;;;;;;;;17.44;54.25;101812.47;5043712;28;20029;-61
2021/04/20 11:11:56;;;;;;;10.57;6.82;;;;;;;17.52;54.41;101815.16;5043112;28;19919;-64
2021/04/20 11:14:57;;;;;;;13.25;7.05;;;;;;;17.48;54.08;101811.16;5050584;28;20029;-61
2021/04/20 11:17:41;;;;;;;11.18;7.40;;;;;;;17.53;54.21;101808.88;4985493;28;20145;-64
2021/04/20 11:20:06;;;;;;;12.70;6.47;;;;;;;17.51;54.20;101813.47;5039433;28;20496;-61
2021/04/20 11:22:46;;;;;;;13.60;6.60;;;;;;;17.50;53.99;101812.66;5050024;28;20025;-69
2021/04/20 11:25:35;;;;;;;16.38;6.80;;;;;;;17.49;54.32;101807.50;5050401;28;20052;-68
2021/04/20 11:28:09;;;;;;;12.65;6.65;;;;;;;17.54;54.52;101814.00;5054816;28;20064;-74
2021/04/20 11:30:37;;;;;;;10.67;6.50;;;;;;;17.58;54.31;101817.19;5050086;28;20074;-73
2021/04/20 11:33:14;;;;;;;13.73;6.93;;;;;;;17.56;54.37;101814.69;5049895;28;20017;-68
2021/04/20 11:35:42;;;;;;;14.18;6.97;;;;;;;17.59;54.42;101816.19;5052682;28;20037;-71
2021/04/20 11:38:13;;;;;;;12.27;7.57;;;;;;;17.58;54.66;101814.53;5058111;28;20025;-71
2021/04/20 11:40:43;;;;;;;11.35;7.47;;;;;;;17.59;55.05;101813.53;5050461;28;20047;-72
2021/04/20 11:43:13;;;;;;;13.45;7.72;;;;;;;17.57;55.33;101813.69;5051303;28;20025;-71
2021/04/20 11:45:41;;;;;;;12.18;7.43;;;;;;;17.59;55.46;101816.19;5040166;28;20041;-71